Time;durP1;ratioP1;P1;durP2;ratioP2;P2;SDS_P1;SDS_P2;PMS_P1;PMS_P2;Temp;Humidity;BMP_temperature;BMP_pressure;BME280_temperature;BME280_humidity;BME280_pressure;Samples;Min_cycle;Max_cycle;Signal;HPM_P1;HPM_P2
2023/07/08 00:00:21;;;;;;;5.95;2.85;;;17.40;99.90;;;;;;5108678;28;20040;-78
2023/07/08 00:02:47;;;;;;;6.53;3.08;;;17.40;99.90;;;;;;5107956;28;20056;-80
2023/07/08 00:05:16;;;;;;;7.32;3.58;;;17.40;99.90;;;;;;5110178;28;20050;-80
2023/07/08 00:07:43;;;;;;;5.63;3.00;;;17.40;99.90;;;;;;5104315;28;20055;-76
2023/07/08 00:10:14;;;;;;;7.70;3.10;;;17.40;99.90;;;;;;5108645;28;20047;-79
2023/07/08 00:12:40;;;;;;;7.72;3.60;;;17.30;99.90;;;;;;5108520;28;20055;-77
2023/07/08 00:15:08;;;;;;;7.10;3.00;;;17.40;99.90;;;;;;5108469;28;20039;-79
2023/07/08 00:17:34;;;;;;;5.63;3.10;;;17.30;99.90;;;;;;5108394;28;20044;-73
2023/07/08 00:20:00;;;;;;;8.10;2.97;;;17.30;99.90;;;;;;5109705;28;20031;-76
2023/07/08 00:22:25;;;;;;;6.38;2.67;;;17.30;99.90;;;;;;5109634;28;20036;-74
2023/07/08 00:24:51;;;;;;;7.80;3.38;;;17.30;99.90;;;;;;5109736;28;20055;-77
2023/07/08 00:27:17;;;;;;;7.88;2.95;;;17.30;99.90;;;;;;5107355;28;20406;-73
2023/07/08 00:29:43;;;;;;;6.53;3.00;;;17.20;99.90;;;;;;5108485;28;20054;-74
2023/07/08 00:32:15;;;;;;;7.10;3.17;;;17.10;99.90;;;;;;5113877;28;20036;-77
2023/07/08 00:34:41;;;;;;;7.32;3.28;;;17.20;99.90;;;;;;5112256;28;20048;-77
2023/07/08 00:37:13;;;;;;;6.63;2.90;;;17.20;99.90;;;;;;5113914;28;20032;-76
2023/07/08 00:39:39;;;;;;;5.47;2.70;;;17.10;99.90;;;;;;5111776;28;20553;-81
2023/07/08 00:42:21;;;;;;;8.25;3.33;;;17.10;99.90;;;;;;5112660;28;20513;-78
2023/07/08 00:44:48;;;;;;;6.15;3.05;;;17.20;99.90;;;;;;5113790;28;20104;-78
2023/07/08 00:47:15;;;;;;;6.35;3.28;;;17.20;99.90;;;;;;5113568;28;20387;-75
2023/07/08 00:49:50;;;;;;;7.95;3.38;;;17.10;99.90;;;;;;5107549;28;20039;-77
2023/07/08 00:52:23;;;;;;;6.78;3.20;;;17.20;99.90;;;;;;5112517;28;20046;-78
2023/07/08 00:54:50;;;;;;;10.95;3.17;;;17.10;99.90;;;;;;5112633;28;20525;-80
2023/07/08 00:57:17;;;;;;;6.43;3.08;;;17.10;99.90;;;;;;5112626;28;20451;-77
2023/07/08 00:59:49;;;;;;;7.55;3.28;;;17.10;99.90;;;;;;5112908;28;20047;-73
2023/07/08 01:02:19;;;;;;;5.85;2.95;;;17.10;99.90;;;;;;5112002;28;20043;-81
2023/07/08 01:04:55;;;;;;;8.25;2.90;;;17.10;99.90;;;;;;5105115;28;20487;-76
2023/07/08 01:07:24;;;;;;;8.85;3.72;;;17.10;99.90;;;;;;5112108;28;20054;-76
2023/07/08 01:10:00;;;;;;;6.50;3.40;;;17.10;99.90;;;;;;5100810;28;20118;-77
2023/07/08 01:12:31;;;;;;;7.65;3.42;;;17.00;99.90;;;;;;5111874;28;20051;-75
2023/07/08 01:15:00;;;;;;;5.65;3.03;;;17.10;99.90;;;;;;5105355;28;20146;-77
2023/07/08 01:17:29;;;;;;;7.82;3.20;;;17.10;99.90;;;;;;5113206;27;20076;-80
2023/07/08 01:19:55;;;;;;;8.82;3.13;;;17.00;99.90;;;;;;5110271;28;20048;-74
2023/07/08 01:22:21;;;;;;;6.50;3.20;;;17.00;99.90;;;;;;5112176;28;20040;-76
2023/07/08 01:24:47;;;;;;;7.50;3.65;;;16.90;99.90;;;;;;5112981;28;20043;-73
2023/07/08 01:27:15;;;;;;;5.30;3.03;;;17.00;99.90;;;;;;5111746;28;20047;-73
2023/07/08 01:29:40;;;;;;;8.55;3.13;;;17.00;99.90;;;;;;5113048;28;20039;-74
2023/07/08 01:32:17;;;;;;;8.70;3.60;;;17.00;99.90;;;;;;5107452;28;20035;-76
2023/07/08 01:34:52;;;;;;;7.10;3.97;;;17.00;99.90;;;;;;5110219;28;20062;-81
2023/07/08 01:37:19;;;;;;;10.27;3.72;;;17.00;99.90;;;;;;5105066;28;20395;-75
2023/07/08 01:39:44;;;;;;;7.97;3.50;;;17.00;99.90;;;;;;5111437;28;20122;-79
2023/07/08 01:42:10;;;;;;;6.65;3.10;;;16.90;99.90;;;;;;5109424;28;20118;-79
2023/07/08 01:44:36;;;;;;;6.78;3.50;;;17.00;99.90;;;;;;5110942;28;20188;-79
2023/07/08 01:47:16;;;;;;;6.40;3.10;;;16.90;99.90;;;;;;5110941;28;20048;-76
2023/07/08 01:49:44;;;;;;;7.15;3.08;;;16.90;99.90;;;;;;5112451;28;20148;-79
2023/07/08 01:52:11;;;;;;;6.43;3.20;;;16.90;99.90;;;;;;5106104;28;20048;-77
2023/07/08 01:54:37;;;;;;;6.82;3.60;;;16.90;99.90;;;;;;5112259;28;20097;-82
2023/07/08 01:57:03;;;;;;;6.10;3.03;;;16.90;99.90;;;;;;5112132;28;20082;-74
2023/07/08 01:59:29;;;;;;;8.02;3.33;;;16.90;99.90;;;;;;5110648;28;20512;-78
2023/07/08 02:01:55;;;;;;;5.63;3.38;;;16.80;99.90;;;;;;5109806;28;20134;-76
2023/07/08 02:04:21;;;;;;;6.78;3.50;;;16.80;99.90;;;;;;5107069;28;20082;-76
2023/07/08 02:06:58;;;;;;;8.13;3.78;;;16.80;99.90;;;;;;5110613;28;20047;-76
2023/07/08 02:09:27;;;;;;;9.82;3.47;;;16.80;99.90;;;;;;5110572;28;20086;-79
2023/07/08 02:11:53;;;;;;;6.28;3.42;;;16.80;99.90;;;;;;5107446;28;20048;-82
2023/07/08 02:14:19;;;;;;;7.72;3.55;;;16.80;99.90;;;;;;5105778;28;20514;-78
2023/07/08 02:16:45;;;;;;;8.27;3.58;;;16.70;99.90;;;;;;5108484;28;20035;-79
2023/07/08 02:19:11;;;;;;;7.07;3.38;;;16.70;99.90;;;;;;5111557;28;20051;-79
2023/07/08 02:21:37;;;;;;;9.38;3.80;;;16.70;99.90;;;;;;5109893;28;20040;-79
2023/07/08 02:24:03;;;;;;;5.57;3.25;;;16.70;99.90;;;;;;5111336;28;20042;-81
2023/07/08 02:26:32;;;;;;;9.15;3.88;;;16.60;99.90;;;;;;5111374;28;20118;-77
2023/07/08 02:28:58;;;;;;;6.80;3.65;;;16.50;99.90;;;;;;5110371;28;20051;-76
2023/07/08 02:31:25;;;;;;;8.32;4.20;;;16.60;99.90;;;;;;5111539;28;20050;-79
2023/07/08 02:33:51;;;;;;;8.02;4.07;;;16.50;99.90;;;;;;5111288;28;20076;-74
2023/07/08 02:36:17;;;;;;;9.13;3.63;;;16.50;99.90;;;;;;5111044;27;20035;-79
2023/07/08 02:38:43;;;;;;;6.13;3.88;;;16.40;99.90;;;;;;5109599;28;20051;-74
2023/07/08 02:41:09;;;;;;;7.93;4.00;;;16.40;99.90;;;;;;5110770;28;20055;-81
2023/07/08 02:43:34;;;;;;;9.02;3.97;;;16.40;99.90;;;;;;5110106;28;20047;-72
2023/07/08 02:46:00;;;;;;;7.63;3.90;;;16.30;99.90;;;;;;5109570;28;20043;-78
2023/07/08 02:48:25;;;;;;;7.78;3.85;;;16.30;99.90;;;;;;5110986;28;20379;-74
2023/07/08 02:50:57;;;;;;;8.00;4.43;;;16.30;99.90;;;;;;5111146;28;20036;-73
2023/07/08 02:53:23;;;;;;;6.53;3.75;;;16.30;99.90;;;;;;5109230;28;20060;-75
2023/07/08 02:55:49;;;;;;;10.18;3.80;;;16.20;99.90;;;;;;5109485;28;20051;-78
2023/07/08 02:58:14;;;;;;;6.57;4.05;;;16.20;99.90;;;;;;5108990;28;20079;-76
2023/07/08 03:00:40;;;;;;;10.73;4.38;;;16.10;99.90;;;;;;5109274;28;20043;-76
2023/07/08 03:03:05;;;;;;;7.47;4.05;;;16.20;99.90;;;;;;5109408;28;20048;-78
2023/07/08 03:05:31;;;;;;;6.78;4.13;;;16.10;99.90;;;;;;5111509;28;20040;-79
2023/07/08 03:07:57;;;;;;;9.27;4.40;;;16.10;99.90;;;;;;5110026;28;20044;-77
2023/07/08 03:10:22;;;;;;;9.95;4.50;;;16.10;99.90;;;;;;5110683;28;20506;-72
2023/07/08 03:12:48;;;;;;;8.80;4.05;;;16.10;99.90;;;;;;5110625;28;20104;-77
2023/07/08 03:15:14;;;;;;;8.55;4.38;;;16.00;99.90;;;;;;5110757;28;20043;-72
2023/07/08 03:17:40;;;;;;;9.73;4.78;;;16.00;99.90;;;;;;5110136;28;20042;-80
2023/07/08 03:20:07;;;;;;;8.07;4.18;;;16.00;99.90;;;;;;5110490;28;20433;-79
2023/07/08 03:22:33;;;;;;;6.75;4.00;;;15.90;99.90;;;;;;5110435;28;20039;-79
2023/07/08 03:24:58;;;;;;;8.80;4.43;;;15.90;99.90;;;;;;5108234;28;20077;-74
2023/07/08 03:27:24;;;;;;;7.43;4.25;;;15.90;99.90;;;;;;5110304;28;20040;-74
2023/07/08 03:29:49;;;;;;;9.70;4.65;;;15.90;99.90;;;;;;5108330;28;20055;-75
2023/07/08 03:32:15;;;;;;;7.40;4.47;;;15.80;99.90;;;;;;5109280;28;20051;-80
2023/07/08 03:34:41;;;;;;;8.63;4.43;;;15.80;99.90;;;;;;5110321;28;20090;-74
2023/07/08 03:37:08;;;;;;;7.90;4.18;;;15.80;99.90;;;;;;5108852;28;20035;-76
2023/07/08 03:39:34;;;;;;;7.63;4.35;;;15.80;99.90;;;;;;5109798;28;20036;-77
2023/07/08 03:42:00;;;;;;;7.22;4.97;;;15.80;99.90;;;;;;5110117;28;20501;-80
2023/07/08 03:44:26;;;;;;;8.43;4.90;;;15.70;99.90;;;;;;5108498;28;20115;-74
2023/07/08 03:46:51;;;;;;;11.40;4.55;;;15.70;99.90;;;;;;5108700;28;20130;-80
2023/07/08 03:49:21;;;;;;;8.05;4.30;;;15.70;99.90;;;;;;5109839;28;20040;-80
2023/07/08 03:51:48;;;;;;;8.95;4.00;;;15.70;99.90;;;;;;5110060;27;20043;-77
2023/07/08 03:54:15;;;;;;;10.35;4.45;;;15.70;99.90;;;;;;5109873;28;20456;-80
2023/07/08 03:56:40;;;;;;;9.43;4.90;;;15.70;99.90;;;;;;5108394;28;20048;-81
2023/07/08 03:59:06;;;;;;;9.25;4.35;;;15.60;99.90;;;;;;5110372;28;20092;-77
2023/07/08 04:01:32;;;;;;;8.82;4.80;;;15.70;99.90;;;;;;5108267;28;20050;-74
2023/07/08 04:03:59;;;;;;;12.30;5.43;;;15.60;99.90;;;;;;5108531;28;20134;-80
2023/07/08 04:06:25;;;;;;;9.43;4.60;;;15.60;99.90;;;;;;5108778;28;20051;-77
2023/07/08 04:08:52;;;;;;;9.07;4.68;;;15.60;99.90;;;;;;5110066;28;20039;-77
2023/07/08 04:11:19;;;;;;;7.60;5.13;;;15.60;99.90;;;;;;5109567;28;20036;-76
2023/07/08 04:13:45;;;;;;;8.00;4.68;;;15.70;99.90;;;;;;5108524;28;20087;-78
2023/07/08 04:16:16;;;;;;;10.57;5.07;;;15.70;99.90;;;;;;5109649;28;20074;-78
2023/07/08 04:18:42;;;;;;;7.93;4.75;;;15.70;99.90;;;;;;5109238;28;20798;-82
2023/07/08 04:21:07;;;;;;;9.48;5.68;;;15.70;99.90;;;;;;5109882;28;20042;-76
2023/07/08 04:23:33;;;;;;;8.63;5.05;;;15.70;99.90;;;;;;5091102;28;20075;-80
2023/07/08 04:25:59;;;;;;;8.60;4.35;;;15.80;99.90;;;;;;5109312;28;20074;-80
2023/07/08 04:28:25;;;;;;;7.28;4.25;;;15.80;99.90;;;;;;5110045;28;20039;-77
2023/07/08 04:30:51;;;;;;;10.65;4.88;;;15.80;99.90;;;;;;5109567;28;20046;-78
2023/07/08 04:33:16;;;;;;;8.73;4.60;;;15.90;99.90;;;;;;5107938;28;20052;-79
2023/07/08 04:35:44;;;;;;;8.93;5.25;;;15.90;99.90;;;;;;5108012;28;20031;-80
2023/07/08 04:38:21;;;;;;;8.75;4.55;;;15.90;99.90;;;;;;5109709;28;21345;-78
2023/07/08 04:40:47;;;;;;;7.65;4.45;;;15.90;99.90;;;;;;5109384;28;20047;-79
2023/07/08 04:43:14;;;;;;;7.53;4.47;;;16.00;99.90;;;;;;5107723;28;20048;-77
2023/07/08 04:45:42;;;;;;;7.75;4.10;;;16.00;99.90;;;;;;5107636;28;20040;-76
2023/07/08 04:48:13;;;;;;;12.07;4.63;;;16.00;99.90;;;;;;5091133;28;20146;-75
2023/07/08 04:50:44;;;;;;;8.43;4.57;;;16.10;99.90;;;;;;5107933;28;20117;-81
2023/07/08 04:53:10;;;;;;;8.10;4.47;;;16.20;99.90;;;;;;5109328;28;20063;-73
2023/07/08 04:55:49;;;;;;;8.30;4.80;;;16.20;99.90;;;;;;5109366;28;20051;-76
2023/07/08 04:58:15;;;;;;;7.43;4.00;;;16.20;99.90;;;;;;5108139;28;20483;-79
2023/07/08 05:00:41;;;;;;;8.68;4.88;;;16.40;99.90;;;;;;5109275;28;20046;-80
2023/07/08 05:03:06;;;;;;;10.00;4.35;;;16.40;99.90;;;;;;5109589;28;20054;-78
2023/07/08 05:05:32;;;;;;;7.70;4.25;;;16.50;99.90;;;;;;5107912;28;20043;-78
2023/07/08 05:07:57;;;;;;;4.70;3.75;;;16.60;99.90;;;;;;5109007;28;20035;-74
2023/07/08 05:10:23;;;;;;;7.30;4.78;;;16.60;99.90;;;;;;5109630;28;20078;-77
2023/07/08 05:12:49;;;;;;;7.20;4.15;;;16.70;99.90;;;;;;5109068;28;20088;-79
2023/07/08 05:15:15;;;;;;;8.88;4.38;;;16.80;99.90;;;;;;5109263;28;20171;-81
2023/07/08 05:17:42;;;;;;;8.73;4.35;;;16.80;99.90;;;;;;5111936;28;20111;-75
2023/07/08 05:20:10;;;;;;;8.98;4.28;;;16.90;99.90;;;;;;5111657;28;20044;-73
2023/07/08 05:22:36;;;;;;;9.45;4.35;;;17.00;99.90;;;;;;5113147;28;20046;-79
2023/07/08 05:25:02;;;;;;;14.05;4.63;;;17.00;99.90;;;;;;5113215;28;20032;-80
2023/07/08 05:27:28;;;;;;;13.95;4.38;;;17.10;99.90;;;;;;5112596;28;20084;-73
2023/07/08 05:29:53;;;;;;;7.85;4.07;;;17.20;99.90;;;;;;5112465;28;20118;-79
2023/07/08 05:32:19;;;;;;;6.57;4.32;;;17.30;99.90;;;;;;5113086;28;20047;-77
2023/07/08 05:34:45;;;;;;;6.38;3.88;;;17.40;99.90;;;;;;5113084;28;20153;-78
2023/07/08 05:37:12;;;;;;;5.88;3.72;;;17.50;99.90;;;;;;5112717;28;20043;-72
2023/07/08 05:39:37;;;;;;;7.55;4.20;;;17.60;99.90;;;;;;5111324;28;20118;-80
2023/07/08 05:42:03;;;;;;;10.48;4.43;;;17.60;99.90;;;;;;5112779;28;20176;-75
2023/07/08 05:44:29;;;;;;;6.75;3.47;;;17.80;99.90;;;;;;5111937;28;20043;-81
2023/07/08 05:46:55;;;;;;;6.25;3.70;;;17.90;99.90;;;;;;5111290;28;20047;-80
2023/07/08 05:49:20;;;;;;;7.10;3.85;;;17.90;99.90;;;;;;5111492;28;20244;-81
2023/07/08 05:51:47;;;;;;;9.50;3.75;;;18.10;99.90;;;;;;5112459;28;20050;-79
2023/07/08 05:54:14;;;;;;;9.85;3.95;;;18.20;99.90;;;;;;5111912;28;20056;-74
2023/07/08 05:56:39;;;;;;;8.15;3.78;;;18.20;99.90;;;;;;5110887;28;20108;-75
2023/07/08 05:59:05;;;;;;;6.20;3.67;;;18.30;99.90;;;;;;5110809;28;20055;-72
2023/07/08 06:01:31;;;;;;;6.45;3.53;;;18.50;99.90;;;;;;5111836;28;20043;-74
2023/07/08 06:04:00;;;;;;;9.45;3.70;;;18.60;99.90;;;;;;5112293;28;20516;-73
2023/07/08 06:06:27;;;;;;;9.57;3.55;;;18.70;99.90;;;;;;5093761;28;20059;-72
2023/07/08 06:08:53;;;;;;;7.90;3.45;;;18.80;99.90;;;;;;5093912;28;20059;-72
2023/07/08 06:11:19;;;;;;;7.97;3.47;;;18.80;99.90;;;;;;5111942;28;20126;-75
2023/07/08 06:13:45;;;;;;;7.63;3.40;;;19.00;99.90;;;;;;5110549;28;20138;-71
2023/07/08 06:16:11;;;;;;;5.80;3.67;;;19.10;99.90;;;;;;5110380;28;20480;-73
2023/07/08 06:18:37;;;;;;;5.45;3.28;;;19.20;99.90;;;;;;5110576;28;20051;-78
2023/07/08 06:21:03;;;;;;;5.35;3.08;;;19.40;99.90;;;;;;5110269;28;20146;-74
2023/07/08 06:23:29;;;;;;;6.47;2.85;;;19.50;99.90;;;;;;5111597;28;20032;-72
2023/07/08 06:25:55;;;;;;;11.43;3.22;;;19.60;99.90;;;;;;5111668;28;20051;-74
2023/07/08 06:28:22;;;;;;;6.80;3.30;;;19.70;99.90;;;;;;5111553;28;20578;-75
2023/07/08 06:30:48;;;;;;;6.60;3.17;;;19.80;99.90;;;;;;5111448;28;20150;-79
2023/07/08 06:33:13;;;;;;;7.90;3.22;;;19.90;99.90;;;;;;5109895;28;20095;-79
2023/07/08 06:35:40;;;;;;;8.88;3.03;;;20.10;99.90;;;;;;5110440;28;20043;-73
2023/07/08 06:38:06;;;;;;;9.13;3.30;;;20.20;99.90;;;;;;5111142;28;20130;-73
2023/07/08 06:40:32;;;;;;;8.70;3.35;;;20.40;99.90;;;;;;5111135;28;20071;-72
2023/07/08 06:42:58;;;;;;;5.88;2.70;;;20.60;99.90;;;;;;5111392;27;20043;-73
2023/07/08 06:45:24;;;;;;;8.27;3.00;;;20.80;99.90;;;;;;5111590;28;20092;-73
2023/07/08 06:47:49;;;;;;;5.82;2.80;;;21.10;99.90;;;;;;5110137;28;20043;-74
2023/07/08 06:50:15;;;;;;;6.13;2.97;;;21.30;99.90;;;;;;5111083;28;20429;-73
2023/07/08 06:52:41;;;;;;;6.20;2.70;;;21.50;99.90;;;;;;5110601;28;20055;-73
2023/07/08 06:55:10;;;;;;;6.93;3.25;;;21.60;99.90;;;;;;5110812;28;20044;-73
2023/07/08 06:57:38;;;;;;;6.10;2.80;;;21.90;99.90;;;;;;5135829;27;20035;-73
2023/07/08 07:00:08;;;;;;;6.32;3.17;;;22.10;99.90;;;;;;5109366;28;20059;-74
2023/07/08 07:02:34;;;;;;;7.47;2.88;;;22.30;99.90;;;;;;5110187;28;20050;-76
2023/07/08 07:05:00;;;;;;;5.25;2.90;;;22.60;99.90;;;;;;5109640;28;20067;-76
2023/07/08 07:07:26;;;;;;;9.60;3.17;;;22.80;99.90;;;;;;5110759;28;20047;-77
2023/07/08 07:09:51;;;;;;;5.70;2.75;;;23.00;99.90;;;;;;5109554;28;20482;-72
2023/07/08 07:12:17;;;;;;;6.65;3.08;;;23.20;99.90;;;;;;5109146;28;20044;-77
2023/07/08 07:14:43;;;;;;;6.78;3.20;;;23.40;99.90;;;;;;5110625;28;20043;-70
2023/07/08 07:17:09;;;;;;;7.25;2.95;;;23.60;99.90;;;;;;5110252;28;20744;-73
2023/07/08 07:19:35;;;;;;;6.95;2.90;;;23.90;99.90;;;;;;5109105;28;20051;-71
2023/07/08 07:22:00;;;;;;;9.00;2.80;;;24.10;99.90;;;;;;5109021;28;20036;-72
2023/07/08 07:24:26;;;;;;;11.98;3.33;;;24.20;99.90;;;;;;5110540;28;20489;-74
2023/07/08 07:26:51;;;;;;;8.10;2.55;;;24.30;99.90;;;;;;5110449;28;20043;-71
2023/07/08 07:29:18;;;;;;;5.65;2.47;;;24.50;99.90;;;;;;5110041;28;20509;-72
2023/07/08 07:31:46;;;;;;;5.22;2.70;;;24.70;99.90;;;;;;5109191;28;20047;-72
2023/07/08 07:34:12;;;;;;;7.60;2.78;;;24.90;99.90;;;;;;5102151;28;20418;-71
2023/07/08 07:36:38;;;;;;;6.95;2.85;;;25.10;99.90;;;;;;5109036;28;20036;-72
2023/07/08 07:39:03;;;;;;;6.75;2.55;;;25.20;99.80;;;;;;5109465;28;20044;-71
2023/07/08 07:41:29;;;;;;;6.40;2.50;;;25.40;99.30;;;;;;5110608;28;20046;-71
2023/07/08 07:43:54;;;;;;;5.57;2.50;;;25.40;99.10;;;;;;5110255;28;20040;-73
2023/07/08 07:46:21;;;;;;;6.72;2.63;;;25.60;99.00;;;;;;5100744;28;20390;-72
2023/07/08 07:48:46;;;;;;;6.88;2.70;;;25.80;99.00;;;;;;5091993;28;20047;-71
2023/07/08 07:51:12;;;;;;;4.50;2.20;;;26.10;98.30;;;;;;5110160;28;20546;-72
2023/07/08 07:53:38;;;;;;;10.88;2.58;;;26.20;98.70;;;;;;5109836;28;20051;-74
2023/07/08 07:56:04;;;;;;;10.80;3.53;;;26.20;97.00;;;;;;5108767;28;20054;-74
2023/07/08 07:58:30;;;;;;;8.65;3.08;;;26.20;97.50;;;;;;5110535;28;20053;-75
2023/07/08 08:00:57;;;;;;;9.25;2.65;;;26.30;97.60;;;;;;5110024;28;20048;-72
2023/07/08 08:03:23;;;;;;;7.72;2.88;;;26.40;97.80;;;;;;5109903;28;20059;-74
2023/07/08 08:05:49;;;;;;;6.25;2.35;;;26.50;97.50;;;;;;5107961;28;20056;-71
2023/07/08 08:08:15;;;;;;;6.80;2.22;;;26.60;96.80;;;;;;5109830;28;20067;-75
2023/07/08 08:10:42;;;;;;;5.80;2.25;;;26.50;96.50;;;;;;5109920;28;20039;-69
2023/07/08 08:13:08;;;;;;;5.10;2.50;;;26.60;97.00;;;;;;5110082;28;20115;-71
2023/07/08 08:15:34;;;;;;;6.68;2.20;;;26.60;96.70;;;;;;5108117;28;20055;-74
2023/07/08 08:18:00;;;;;;;5.78;2.45;;;26.70;96.80;;;;;;5108758;28;20035;-73
2023/07/08 08:20:26;;;;;;;9.18;2.58;;;26.70;96.70;;;;;;5108591;28;20053;-73
2023/07/08 08:22:52;;;;;;;7.20;2.55;;;26.90;96.60;;;;;;5109742;28;20078;-74
2023/07/08 08:25:19;;;;;;;8.82;2.45;;;27.00;96.20;;;;;;5108170;28;20043;-69
2023/07/08 08:27:45;;;;;;;7.43;2.88;;;27.00;95.90;;;;;;5108248;28;20429;-72
2023/07/08 08:30:12;;;;;;;6.35;2.53;;;27.00;96.30;;;;;;5108667;28;20073;-72
2023/07/08 08:32:37;;;;;;;7.40;2.63;;;27.30;96.30;;;;;;5109674;28;20043;-75
2023/07/08 08:35:04;;;;;;;5.95;2.17;;;27.20;96.10;;;;;;5109239;28;20051;-71
2023/07/08 08:37:30;;;;;;;9.18;2.78;;;27.30;96.00;;;;;;5109635;28;20084;-69
2023/07/08 08:39:55;;;;;;;6.95;2.30;;;27.60;96.10;;;;;;5108032;28;20044;-77
2023/07/08 08:42:39;;;;;;;7.07;2.40;;;27.50;96.00;;;;;;5109577;28;20101;-71
2023/07/08 08:45:10;;;;;;;5.20;2.70;;;27.70;95.00;;;;;;5109596;28;20044;-74
2023/07/08 08:47:47;;;;;;;6.53;2.65;;;27.90;95.50;;;;;;5107739;28;20040;-73
2023/07/08 08:50:38;;;;;;;9.20;2.40;;;28.00;94.90;;;;;;5108950;28;20059;-71
2023/07/08 08:53:08;;;;;;;7.03;2.45;;;28.00;95.00;;;;;;5113228;28;20059;-70
2023/07/08 08:55:34;;;;;;;8.35;2.42;;;28.20;95.20;;;;;;5104054;28;20071;-72
2023/07/08 08:58:16;;;;;;;7.45;2.47;;;28.20;95.30;;;;;;5113334;28;20425;-75
2023/07/08 09:01:00;;;;;;;6.00;2.13;;;28.20;94.20;;;;;;5104443;28;20441;-76
2023/07/08 09:03:52;;;;;;;3.88;2.40;;;28.20;93.90;;;;;;5113147;28;20115;-71
2023/07/08 09:06:24;;;;;;;6.78;2.53;;;28.30;93.60;;;;;;5111225;28;20054;-72
2023/07/08 09:08:51;;;;;;;4.47;2.30;;;28.30;93.30;;;;;;5105607;28;20047;-74
2023/07/08 09:11:26;;;;;;;6.15;2.17;;;28.30;94.20;;;;;;5111823;28;20040;-70
2023/07/08 09:13:52;;;;;;;6.15;2.28;;;28.50;94.30;;;;;;5103344;28;20083;-72
2023/07/08 09:16:43;;;;;;;4.90;2.45;;;28.50;94.40;;;;;;5111790;28;20055;-71
2023/07/08 09:19:13;;;;;;;6.57;2.35;;;28.70;93.90;;;;;;5111347;28;20040;-72
2023/07/08 09:21:49;;;;;;;6.43;2.50;;;28.80;93.60;;;;;;5112681;28;20115;-74
2023/07/08 09:24:31;;;;;;;6.57;2.40;;;28.90;93.60;;;;;;5111576;28;20072;-73
2023/07/08 09:26:59;;;;;;;4.82;2.00;;;28.90;93.60;;;;;;5112891;28;20486;-72
2023/07/08 09:29:25;;;;;;;7.68;2.22;;;29.10;93.80;;;;;;5112752;28;20067;-72
2023/07/08 09:31:51;;;;;;;5.57;2.42;;;29.20;93.90;;;;;;5111630;28;20431;-72
2023/07/08 09:34:25;;;;;;;7.78;2.33;;;29.40;93.90;;;;;;5111574;28;20486;-73
2023/07/08 09:36:51;;;;;;;;;;;29.60;93.80;;;;;;5112542;28;20046;-71
2023/07/08 09:39:20;;;;;;;5.85;2.00;;;29.80;93.30;;;;;;5112591;28;19931;-73
2023/07/08 09:41:48;;;;;;;6.40;2.40;;;29.80;94.00;;;;;;5111139;28;20119;-73
2023/07/08 09:44:28;;;;;;;5.53;2.03;;;30.00;93.70;;;;;;5111431;28;20052;-71
2023/07/08 09:46:58;;;;;;;8.63;2.30;;;30.10;93.20;;;;;;5094127;28;20087;-71
2023/07/08 09:49:31;;;;;;;9.45;2.10;;;30.30;93.80;;;;;;5112134;28;20649;-71
2023/07/08 09:51:57;;;;;;;9.70;2.40;;;30.40;93.30;;;;;;5112369;28;20118;-72
2023/07/08 09:54:25;;;;;;;5.18;2.50;;;30.50;93.50;;;;;;5111901;28;20055;-71
2023/07/08 09:57:11;;;;;;;5.55;2.67;;;30.50;93.20;;;;;;5112234;28;20032;-72
2023/07/08 09:59:52;;;;;;;6.53;2.40;;;30.40;91.80;;;;;;5102998;28;20044;-72
2023/07/08 10:02:45;;;;;;;4.63;2.33;;;30.40;92.80;;;;;;5111858;28;20048;-71
2023/07/08 10:05:29;;;;;;;8.75;2.60;;;30.50;92.50;;;;;;5111786;27;20050;-73
2023/07/08 10:07:56;;;;;;;5.85;2.88;;;30.60;92.90;;;;;;5109274;28;20058;-71
2023/07/08 10:10:37;;;;;;;9.65;2.60;;;30.60;93.10;;;;;;5111845;28;20096;-73
2023/07/08 10:13:11;;;;;;;9.02;3.35;;;30.70;92.50;;;;;;5111923;28;20067;-72
2023/07/08 10:15:41;;;;;;;6.28;2.47;;;30.70;92.60;;;;;;5112081;28;20425;-74
2023/07/08 10:18:22;;;;;;;6.93;2.35;;;30.90;92.60;;;;;;5111842;27;20032;-72
2023/07/08 10:21:15;;;;;;;5.03;2.30;;;30.90;92.40;;;;;;5111708;28;20035;-71
2023/07/08 10:23:59;;;;;;;9.40;2.53;;;30.80;92.20;;;;;;5109820;28;20051;-71
2023/07/08 10:26:27;;;;;;;;;;;31.00;92.50;;;;;;5112140;27;20031;-71
2023/07/08 10:29:01;;;;;;;3.95;2.15;;;31.10;92.40;;;;;;5110192;28;19967;-71
2023/07/08 10:31:59;;;;;;;8.73;2.45;;;31.10;92.10;;;;;;5111421;28;20123;-72
2023/07/08 10:34:39;;;;;;;8.85;2.15;;;31.20;92.10;;;;;;5103389;28;20051;-72
2023/07/08 10:37:19;;;;;;;7.20;2.67;;;31.20;91.70;;;;;;5109579;28;20055;-72
2023/07/08 10:40:19;;;;;;;4.90;2.17;;;31.30;91.60;;;;;;5110887;28;20055;-73
2023/07/08 10:43:14;;;;;;;6.72;2.33;;;31.50;91.60;;;;;;5106999;28;20513;-72
2023/07/08 10:45:58;;;;;;;5.05;2.33;;;31.60;91.70;;;;;;5105754;28;20096;-72
2023/07/08 10:48:38;;;;;;;9.30;2.30;;;31.60;91.70;;;;;;5107977;28;20047;-75
2023/07/08 10:51:25;;;;;;;5.93;2.30;;;31.60;91.70;;;;;;5089716;28;20070;-73
2023/07/08 10:54:35;;;;;;;5.63;2.55;;;31.60;90.80;;;;;;5110956;28;20686;-72
2023/07/08 10:57:36;;;;;;;5.68;2.78;;;31.80;91.90;;;;;;5105361;28;20048;-73
2023/07/08 11:00:08;;;;;;;5.82;2.50;;;31.90;90.90;;;;;;5110351;28;20051;-71
2023/07/08 11:03:05;;;;;;;6.60;2.50;;;31.90;90.60;;;;;;5110626;28;20048;-71
2023/07/08 11:05:58;;;;;;;6.13;2.42;;;32.00;90.70;;;;;;5109678;28;20383;-74
2023/07/08 11:08:29;;;;;;;5.43;2.33;;;32.10;90.40;;;;;;5109552;28;20068;-72
2023/07/08 11:11:30;;;;;;;5.93;2.40;;;32.10;91.00;;;;;;5110486;28;20042;-73
2023/07/08 11:14:08;;;;;;;7.00;2.53;;;32.20;90.50;;;;;;5102779;28;20047;-72
2023/07/08 11:16:41;;;;;;;5.53;2.40;;;32.30;90.20;;;;;;5108889;28;20063;-72
2023/07/08 11:19:23;;;;;;;5.65;2.22;;;32.30;90.40;;;;;;5109301;28;20119;-72
2023/07/08 11:21:54;;;;;;;9.27;2.55;;;32.40;90.60;;;;;;5110378;28;20051;-73
2023/07/08 11:24:40;;;;;;;7.07;3.10;;;32.40;90.10;;;;;;5109188;28;20436;-73
2023/07/08 11:27:24;;;;;;;4.57;2.70;;;32.40;88.10;;;;;;5102253;28;20040;-73
2023/07/08 11:29:56;;;;;;;7.70;2.50;;;32.50;87.70;;;;;;5108908;28;20054;-72
2023/07/08 11:32:26;;;;;;;5.57;2.70;;;32.50;88.80;;;;;;5110295;28;20044;-73
2023/07/08 11:34:53;;;;;;;6.60;2.63;;;32.50;88.90;;;;;;5110172;28;20047;-72
2023/07/08 11:37:21;;;;;;;6.10;2.97;;;32.60;89.20;;;;;;5109796;28;20102;-75
2023/07/08 11:40:07;;;;;;;4.63;2.15;;;32.60;88.40;;;;;;5110555;27;20126;-77
2023/07/08 11:42:41;;;;;;;6.90;2.47;;;32.60;86.30;;;;;;5103972;28;20032;-75
2023/07/08 11:45:31;;;;;;;6.35;2.53;;;32.60;86.90;;;;;;5110275;28;20063;-74
2023/07/08 11:48:04;;;;;;;5.15;2.92;;;32.70;85.40;;;;;;5108870;28;20052;-80
2023/07/08 11:50:36;;;;;;;5.55;3.05;;;32.80;86.50;;;;;;5100990;28;20039;-75
2023/07/08 11:53:07;;;;;;;6.57;2.67;;;32.70;85.80;;;;;;5109923;28;20059;-74
2023/07/08 11:55:43;;;;;;;5.75;2.60;;;32.80;86.90;;;;;;5107803;28;20039;-75
2023/07/08 11:58:24;;;;;;;4.28;2.88;;;32.90;87.00;;;;;;5091586;28;20075;-75
2023/07/08 12:01:19;;;;;;;5.80;2.88;;;32.80;86.70;;;;;;5103817;28;20039;-74
2023/07/08 12:03:55;;;;;;;6.97;2.63;;;32.90;86.00;;;;;;5101071;28;20425;-74
2023/07/08 12:06:47;;;;;;;6.13;2.85;;;33.00;84.10;;;;;;5110479;28;20036;-73
2023/07/08 12:09:22;;;;;;;4.55;2.50;;;33.20;85.00;;;;;;5110118;28;20456;-74
2023/07/08 12:11:52;;;;;;;6.30;2.55;;;33.10;86.30;;;;;;5101326;28;20143;-75
2023/07/08 12:14:17;;;;;;;6.32;2.65;;;33.30;86.20;;;;;;5108424;28;20055;-74
2023/07/08 12:16:43;;;;;;;3.33;2.40;;;33.40;85.70;;;;;;5109593;28;20054;-75
2023/07/08 12:19:15;;;;;;;4.93;2.47;;;33.50;86.20;;;;;;5109885;28;20051;-75
2023/07/08 12:21:41;;;;;;;7.93;2.63;;;33.50;85.20;;;;;;5110155;28;20122;-74
2023/07/08 12:24:10;;;;;;;4.18;3.00;;;33.60;84.90;;;;;;5109890;28;20043;-75
2023/07/08 12:26:36;;;;;;;8.15;2.63;;;33.50;85.20;;;;;;5113601;28;20490;-75
2023/07/08 12:29:02;;;;;;;3.15;2.10;;;33.60;85.00;;;;;;5112488;28;20044;-74
2023/07/08 12:31:29;;;;;;;5.40;2.63;;;33.50;84.50;;;;;;5113852;28;20444;-75
2023/07/08 12:33:55;;;;;;;4.50;2.33;;;33.60;84.30;;;;;;5112537;28;20138;-75
2023/07/08 12:36:27;;;;;;;9.85;2.78;;;33.70;84.50;;;;;;5112777;28;20451;-75
2023/07/08 12:38:57;;;;;;;3.72;2.22;;;33.70;83.30;;;;;;5113835;28;20122;-72
2023/07/08 12:41:27;;;;;;;5.60;2.95;;;33.80;83.80;;;;;;5112352;28;20040;-76
2023/07/08 12:43:53;;;;;;;5.10;2.80;;;33.80;83.10;;;;;;5111867;28;20077;-76
2023/07/08 12:46:21;;;;;;;6.10;2.53;;;33.90;83.50;;;;;;5114120;28;20035;-76
2023/07/08 12:48:47;;;;;;;5.75;2.55;;;34.10;83.60;;;;;;5112655;28;20043;-74
2023/07/08 12:51:15;;;;;;;8.77;2.85;;;34.10;83.90;;;;;;5113781;28;20040;-75
2023/07/08 12:53:42;;;;;;;8.98;3.08;;;34.10;83.00;;;;;;5111951;28;20047;-76
2023/07/08 12:56:09;;;;;;;5.68;2.47;;;34.30;83.20;;;;;;5112114;28;20040;-74
2023/07/08 12:58:40;;;;;;;6.68;2.83;;;34.30;82.80;;;;;;5104479;28;20040;-74
2023/07/08 13:01:07;;;;;;;7.38;3.33;;;34.30;82.40;;;;;;5112065;28;20082;-75